createdAt,value
2019-03-08T00:01:59.587Z,6.38
2019-03-08T00:03:59.598Z,6.34
2019-03-08T00:05:59.240Z,6.25
2019-03-08T00:07:59.527Z,6.40
2019-03-08T00:09:59.534Z,6.38
2019-03-08T00:11:59.559Z,6.31
2019-03-08T00:13:59.549Z,6.22
2019-03-08T00:15:59.681Z,6.31
2019-03-08T00:17:59.386Z,6.36
2019-03-08T00:19:59.900Z,6.35
2019-03-08T00:21:59.613Z,6.34
2019-03-08T00:23:59.284Z,6.37
2019-03-08T00:25:59.655Z,6.38
2019-03-08T00:27:59.746Z,6.41
2019-03-08T00:29:59.750Z,6.34
2019-03-08T00:31:59.271Z,6.27
2019-03-08T00:33:59.562Z,6.24
2019-03-08T00:35:59.692Z,6.17
2019-03-08T00:37:59.701Z,6.36
2019-03-08T00:39:59.917Z,6.33
2019-03-08T00:41:59.616Z,6.29
2019-03-08T00:43:59.624Z,6.20
2019-03-08T00:45:59.644Z,6.23
2019-03-08T00:47:59.857Z,6.28
2019-03-08T00:49:59.660Z,6.21
2019-03-08T00:51:59.678Z,6.25
2019-03-08T00:53:59.686Z,6.17
2019-03-08T00:55:59.507Z,6.18
2019-03-08T00:58:00.017Z,6.22
2019-03-08T00:59:59.420Z,6.28
2019-03-08T01:01:59.494Z,6.27
2019-03-08T01:03:59.747Z,6.22
2019-03-08T01:05:59.657Z,6.29
2019-03-08T01:07:59.563Z,6.20
2019-03-08T01:09:59.477Z,6.42
2019-03-08T01:11:59.417Z,6.28
2019-03-08T01:13:59.602Z,6.33
2019-03-08T01:15:59.712Z,6.24
2019-03-08T01:17:59.421Z,6.17
2019-03-08T01:19:59.635Z,6.15
2019-03-08T01:21:59.855Z,6.24
2019-03-08T01:23:59.665Z,6.18
2019-03-08T01:25:59.672Z,6.11
2019-03-08T01:27:59.471Z,6.19
2019-03-08T01:29:59.597Z,6.14
2019-03-08T01:31:59.404Z,6.20
2019-03-08T01:33:59.924Z,6.02
2019-03-08T01:35:59.729Z,6.15
2019-03-08T01:37:59.631Z,6.16
2019-03-08T01:39:59.748Z,6.20
2019-03-08T01:42:00.077Z,6.28
2019-03-08T01:43:59.881Z,6.16
2019-03-08T01:45:59.682Z,6.23
2019-03-08T01:47:59.901Z,6.29
2019-03-08T01:49:59.705Z,6.31
2019-03-08T01:51:59.731Z,6.18
2019-03-08T01:53:59.534Z,6.21
2019-03-08T01:55:59.954Z,6.17
2019-03-08T01:57:59.567Z,6.33
2019-03-08T01:59:59.457Z,6.30
2019-03-08T02:01:59.570Z,6.23
2019-03-08T02:03:59.575Z,6.26
2019-03-08T02:05:59.701Z,6.35
2019-03-08T02:07:59.611Z,6.31
2019-03-08T02:09:59.721Z,6.33
2019-03-08T02:11:59.558Z,6.36
2019-03-08T02:14:00.081Z,6.36
2019-03-08T02:15:59.857Z,6.45
2019-03-08T02:17:59.876Z,6.36
2019-03-08T02:19:59.783Z,6.39
2019-03-08T02:21:59.791Z,6.45
2019-03-08T02:23:59.802Z,6.48
2019-03-08T02:25:59.711Z,6.39
2019-03-08T02:27:59.827Z,6.48
2019-03-08T02:29:59.633Z,6.42
2019-03-08T02:31:59.742Z,6.39
2019-03-08T02:33:59.662Z,6.40
2019-03-08T02:35:59.666Z,6.59
2019-03-08T02:37:59.891Z,6.34
2019-03-08T02:39:59.799Z,6.38
2019-03-08T02:42:00.005Z,6.40
2019-03-08T02:43:59.560Z,6.42
2019-03-08T02:45:59.734Z,6.51
2019-03-08T02:47:59.740Z,6.58
2019-03-08T02:49:59.752Z,6.50
2019-03-08T02:51:59.559Z,6.46
2019-03-08T02:53:59.573Z,6.50
2019-03-08T02:55:59.593Z,6.57
2019-03-08T02:57:59.600Z,6.59
2019-03-08T02:59:59.479Z,6.66
2019-03-08T03:01:59.819Z,6.72
2019-03-08T03:04:00.242Z,6.54
2019-03-08T03:05:59.658Z,6.64
2019-03-08T03:07:59.755Z,6.56
2019-03-08T03:09:59.577Z,6.57
2019-03-08T03:11:59.804Z,6.59
2019-03-08T03:13:59.558Z,6.51
2019-03-08T03:15:59.600Z,6.59
2019-03-08T03:18:00.119Z,6.54
2019-03-08T03:19:59.701Z,6.56
2019-03-08T03:21:59.642Z,6.55
2019-03-08T03:23:59.951Z,6.59
2019-03-08T03:26:00.071Z,6.55
2019-03-08T03:27:59.768Z,6.46
2019-03-08T03:29:59.683Z,6.41
2019-03-08T03:31:59.818Z,6.48
2019-03-08T03:33:59.901Z,6.48
2019-03-08T03:35:59.851Z,6.45
2019-03-08T03:37:59.727Z,6.51
2019-03-08T03:39:59.876Z,6.53
2019-03-08T03:41:59.744Z,6.41
2019-03-08T03:43:59.655Z,6.52
2019-03-08T03:45:59.764Z,6.53
2019-03-08T03:47:59.670Z,6.38
2019-03-08T03:49:59.790Z,6.41
2019-03-08T03:51:59.606Z,6.29
2019-03-08T03:54:00.015Z,6.22
2019-03-08T03:55:59.557Z,6.28
2019-03-08T03:57:59.782Z,6.22
2019-03-08T04:00:00.055Z,6.10
2019-03-08T04:01:59.762Z,6.14
2019-03-08T04:03:59.976Z,5.99
2019-03-08T04:05:59.751Z,6.06
2019-03-08T04:07:59.996Z,5.94
2019-03-08T04:09:59.688Z,5.86
2019-03-08T04:11:59.816Z,5.94
2019-03-08T04:13:59.746Z,5.84
2019-03-08T04:15:59.835Z,5.78
2019-03-08T04:17:59.640Z,5.75
2019-03-08T04:19:59.765Z,5.65
2019-03-08T04:21:59.876Z,5.62
2019-03-08T04:23:59.994Z,5.53
2019-03-08T04:25:59.801Z,5.54
2019-03-08T04:27:59.917Z,5.53
2019-03-08T04:29:59.996Z,5.56
2019-03-08T04:31:59.934Z,5.69
2019-03-08T04:33:59.948Z,5.70
2019-03-08T04:35:59.991Z,5.62
2019-03-08T04:38:00.076Z,5.69
2019-03-08T04:39:59.880Z,5.70
2019-03-08T04:41:59.784Z,5.69
2019-03-08T04:43:59.902Z,5.64
2019-03-08T04:45:59.815Z,5.61
2019-03-08T04:47:59.751Z,5.59
2019-03-08T04:49:59.940Z,5.71
2019-03-08T04:52:00.147Z,5.66
2019-03-08T04:53:59.963Z,5.67
2019-03-08T04:55:59.765Z,5.79
2019-03-08T04:57:59.775Z,5.78
2019-03-08T04:59:59.786Z,5.60
2019-03-08T05:01:59.801Z,5.58
2019-03-08T05:03:59.925Z,5.63
2019-03-08T05:06:00.736Z,5.63
2019-03-08T05:07:59.844Z,5.69
2019-03-08T05:10:00.301Z,5.71
2019-03-08T05:11:59.865Z,5.76
2019-03-08T05:13:59.792Z,5.73
2019-03-08T05:15:59.609Z,5.73
2019-03-08T05:18:00.080Z,5.75
2019-03-08T05:19:59.820Z,5.77
2019-03-08T05:21:59.919Z,5.85
2019-03-08T05:23:59.931Z,5.73
2019-03-08T05:25:59.827Z,5.81
2019-03-08T05:27:59.822Z,5.85
2019-03-08T05:29:59.870Z,5.86
2019-03-08T05:31:59.857Z,5.78
2019-03-08T05:34:00.135Z,5.80
2019-03-08T05:35:59.852Z,5.85
2019-03-08T05:38:00.114Z,5.74
2019-03-08T05:39:59.927Z,5.80
2019-03-08T05:41:59.947Z,5.81
2019-03-08T05:44:00.250Z,5.87
2019-03-08T05:45:59.757Z,5.84
2019-03-08T05:47:59.866Z,5.95
2019-03-08T05:49:59.876Z,5.86
2019-03-08T05:51:59.681Z,5.85
2019-03-08T05:54:00.001Z,5.94
2019-03-08T05:55:59.812Z,5.98
2019-03-08T05:58:00.000Z,6.10
2019-03-08T05:59:59.881Z,6.03
2019-03-08T06:01:59.845Z,6.05
2019-03-08T06:03:59.865Z,6.01
2019-03-08T06:05:59.873Z,5.92
2019-03-08T06:07:59.636Z,6.09
2019-03-08T06:09:59.999Z,5.99
2019-03-08T06:12:00.007Z,5.99
2019-03-08T06:14:00.014Z,5.98
2019-03-08T06:15:59.818Z,5.94
2019-03-08T06:17:59.941Z,6.02
2019-03-08T06:19:59.836Z,5.96
2019-03-08T06:21:59.963Z,6.05
2019-03-08T06:23:59.977Z,6.10
2019-03-08T06:25:59.999Z,6.07
2019-03-08T06:27:59.891Z,6.17
2019-03-08T06:29:59.665Z,6.23
2019-03-08T06:31:59.817Z,6.25
2019-03-08T06:33:59.927Z,6.27
2019-03-08T06:35:59.734Z,6.25
2019-03-08T06:37:59.947Z,6.29
2019-03-08T06:39:59.847Z,6.23
2019-03-08T06:41:59.725Z,6.06
2019-03-08T06:43:59.676Z,6.26
2019-03-08T06:45:59.785Z,6.12
2019-03-08T06:47:59.906Z,6.12
2019-03-08T06:49:59.927Z,6.16
2019-03-08T06:52:00.952Z,6.24
2019-03-08T06:53:59.938Z,6.29
2019-03-08T06:55:59.848Z,6.19
2019-03-08T06:57:59.756Z,6.26
2019-03-08T06:59:59.906Z,6.32
2019-03-08T07:01:59.995Z,6.33
2019-03-08T07:03:59.892Z,6.36
2019-03-08T07:06:00.007Z,6.44
2019-03-08T07:07:59.826Z,6.53
2019-03-08T07:10:00.031Z,6.69
2019-03-08T07:11:59.947Z,6.87
2019-03-08T07:13:59.944Z,6.90
2019-03-08T07:15:59.968Z,7.08
2019-03-08T07:17:59.926Z,7.08
2019-03-08T07:20:00.309Z,7.15
2019-03-08T07:22:00.006Z,7.14
2019-03-08T07:24:00.014Z,7.17
2019-03-08T07:25:59.914Z,7.07
2019-03-08T07:28:00.033Z,7.09
2019-03-08T07:29:59.843Z,6.88
2019-03-08T07:31:59.848Z,7.00
2019-03-08T07:34:00.095Z,6.93
2019-03-08T07:36:00.033Z,7.00
2019-03-08T07:37:59.894Z,6.83
2019-03-08T07:40:00.156Z,6.95
2019-03-08T07:41:59.916Z,6.96
2019-03-08T07:44:00.132Z,6.97
2019-03-08T07:46:00.070Z,7.01
2019-03-08T07:48:00.142Z,7.02
2019-03-08T07:50:00.074Z,7.02
2019-03-08T07:51:59.964Z,7.07
2019-03-08T07:53:59.979Z,6.98
2019-03-08T07:56:00.103Z,7.06
2019-03-08T07:58:00.122Z,6.91
2019-03-08T08:00:00.248Z,6.84
2019-03-08T08:02:00.031Z,6.80
2019-03-08T08:03:59.943Z,6.78
2019-03-08T08:06:00.060Z,6.93
2019-03-08T08:08:00.068Z,6.82
2019-03-08T08:10:00.123Z,6.83
2019-03-08T08:11:59.879Z,6.75
2019-03-08T08:14:00.309Z,6.61
2019-03-08T08:15:59.999Z,6.54
2019-03-08T08:18:00.060Z,6.34
2019-03-08T08:20:00.138Z,6.48
2019-03-08T08:21:59.839Z,6.37
2019-03-08T08:23:59.863Z,6.35
2019-03-08T08:26:00.166Z,6.34
2019-03-08T08:28:00.495Z,6.26
2019-03-08T08:30:00.324Z,6.18
2019-03-08T08:32:00.103Z,6.25
2019-03-08T08:34:00.032Z,6.13
2019-03-08T08:36:00.000Z,6.08
2019-03-08T08:38:00.139Z,6.05
2019-03-08T08:40:00.290Z,6.00
2019-03-08T08:42:00.069Z,5.99
2019-03-08T08:43:59.966Z,5.89
2019-03-08T08:46:00.089Z,6.04
2019-03-08T08:47:59.890Z,5.87
2019-03-08T08:50:00.309Z,5.85
2019-03-08T08:51:59.769Z,5.94
2019-03-08T08:54:00.232Z,5.91
2019-03-08T08:56:00.243Z,5.85
2019-03-08T08:58:00.253Z,5.79
2019-03-08T09:00:00.058Z,5.91
2019-03-08T09:02:00.073Z,5.84
2019-03-08T09:04:00.288Z,5.88
2019-03-08T09:05:59.980Z,5.82
2019-03-08T09:08:00.313Z,5.72
2019-03-08T09:10:00.400Z,5.77
2019-03-08T09:12:00.153Z,5.86
2019-03-08T09:13:59.797Z,5.80
2019-03-08T09:15:59.999Z,5.89
2019-03-08T09:18:00.066Z,5.87
2019-03-08T09:20:00.071Z,5.90
2019-03-08T09:22:00.088Z,5.94
2019-03-08T09:24:00.212Z,5.98
2019-03-08T09:26:00.222Z,5.91
2019-03-08T09:28:00.223Z,5.86
2019-03-08T09:30:00.106Z,5.90
2019-03-08T09:32:00.143Z,5.92
2019-03-08T09:34:00.067Z,5.95
2019-03-08T09:36:00.268Z,5.91
2019-03-08T09:37:59.980Z,5.98
2019-03-08T09:40:00.303Z,5.85
2019-03-08T09:42:00.202Z,5.88
2019-03-08T09:43:59.997Z,5.96
2019-03-08T09:46:00.175Z,5.90
2019-03-08T09:48:00.147Z,5.89
2019-03-08T09:50:00.388Z,5.94
2019-03-08T09:52:00.231Z,5.92
2019-03-08T09:54:00.098Z,5.90
2019-03-08T09:56:00.183Z,5.99
2019-03-08T09:58:00.294Z,5.90
2019-03-08T10:00:00.007Z,5.88
2019-03-08T10:02:00.125Z,5.93
2019-03-08T10:04:00.339Z,5.83
2019-03-08T10:06:00.177Z,5.99
2019-03-08T10:08:00.061Z,6.10
2019-03-08T10:09:59.921Z,6.01
2019-03-08T10:12:00.177Z,5.98
2019-03-08T10:14:00.186Z,6.11
2019-03-08T10:16:00.128Z,6.19
2019-03-08T10:18:00.212Z,6.22
2019-03-08T10:20:00.294Z,6.32
2019-03-08T10:22:00.227Z,6.48
2019-03-08T10:24:00.141Z,6.44
2019-03-08T10:26:00.248Z,6.33
2019-03-08T10:28:00.194Z,6.51
2019-03-08T10:30:00.304Z,6.45
2019-03-08T10:32:00.182Z,6.58
2019-03-08T10:34:00.402Z,6.92
2019-03-08T10:36:00.215Z,7.07
2019-03-08T10:38:00.106Z,7.24
2019-03-08T10:40:00.547Z,7.54
2019-03-08T10:42:00.250Z,7.67
2019-03-08T10:44:08.974Z,7.63
2019-03-08T10:46:00.324Z,7.55
2019-03-08T10:48:00.203Z,7.58
2019-03-08T10:50:00.262Z,7.49
2019-03-08T10:52:00.217Z,7.55
2019-03-08T10:54:01.013Z,7.57
2019-03-08T10:56:00.228Z,7.59
2019-03-08T10:58:00.172Z,7.55
2019-03-08T11:00:00.301Z,7.53
2019-03-08T11:02:00.164Z,7.41
2019-03-08T11:04:00.266Z,7.42
2019-03-08T11:06:00.100Z,7.52
2019-03-08T11:08:00.091Z,7.40
2019-03-08T11:10:00.299Z,7.48
2019-03-08T11:12:00.104Z,7.32
2019-03-08T11:14:00.126Z,7.45
2019-03-08T11:16:00.517Z,7.47
2019-03-08T11:18:00.249Z,7.47
2019-03-08T11:20:00.359Z,7.25
2019-03-08T11:22:00.336Z,7.08
2019-03-08T11:24:00.074Z,6.92
2019-03-08T11:26:00.149Z,6.87
2019-03-08T11:28:00.306Z,6.78
2019-03-08T11:30:00.342Z,6.77
2019-03-08T11:32:00.119Z,6.84
2019-03-08T11:34:00.246Z,7.01
2019-03-08T11:36:00.156Z,6.84
2019-03-08T11:38:00.464Z,6.82
2019-03-08T11:39:59.970Z,6.79
2019-03-08T11:42:00.303Z,6.86
2019-03-08T11:44:00.403Z,7.19
2019-03-08T11:46:00.206Z,7.41
2019-03-08T11:48:00.224Z,7.51
2019-03-08T11:50:00.174Z,7.71
2019-03-08T11:52:00.451Z,8.03
2019-03-08T11:54:00.458Z,8.37
2019-03-08T11:56:00.370Z,8.48
2019-03-08T11:58:00.384Z,8.39
2019-03-08T12:00:00.606Z,8.29
2019-03-08T12:02:00.313Z,8.24
2019-03-08T12:04:00.415Z,8.05
2019-03-08T12:06:01.134Z,8.02
2019-03-08T12:08:00.339Z,7.96
2019-03-08T12:10:00.322Z,7.81
2019-03-08T12:12:00.457Z,7.92
2019-03-08T12:14:00.269Z,7.88
2019-03-08T12:16:00.383Z,7.67
2019-03-08T12:18:00.092Z,7.70
2019-03-08T12:20:00.509Z,7.51
2019-03-08T12:22:03.100Z,7.47
2019-03-08T12:24:00.431Z,7.40
2019-03-08T12:26:00.140Z,7.35
2019-03-08T12:28:00.257Z,7.32
2019-03-08T12:30:00.333Z,7.65
2019-03-08T12:32:00.376Z,7.84
2019-03-08T12:34:00.397Z,7.86
2019-03-08T12:36:00.399Z,7.89
2019-03-08T12:38:00.213Z,7.88
2019-03-08T12:40:00.328Z,7.81
2019-03-08T12:41:59.968Z,8.23
2019-03-08T12:44:00.650Z,8.41
2019-03-08T12:46:00.370Z,8.51
2019-03-08T12:48:00.295Z,8.59
2019-03-08T12:50:00.377Z,8.55
2019-03-08T12:52:00.334Z,8.63
2019-03-08T12:54:00.278Z,8.74
2019-03-08T12:56:00.522Z,8.62
2019-03-08T12:58:00.628Z,8.69
2019-03-08T13:00:00.428Z,8.63
2019-03-08T13:02:00.344Z,8.63
2019-03-08T13:04:00.118Z,8.55
2019-03-08T13:06:00.306Z,8.55
2019-03-08T13:08:00.299Z,8.48
2019-03-08T13:10:00.284Z,8.64
2019-03-08T13:12:00.297Z,8.50
2019-03-08T13:14:00.296Z,8.59
2019-03-08T13:16:00.421Z,8.71
2019-03-08T13:18:00.330Z,8.65
2019-03-08T13:20:00.448Z,8.59
2019-03-08T13:22:00.391Z,8.58
2019-03-08T13:24:00.371Z,8.61
2019-03-08T13:26:00.270Z,8.54
2019-03-08T13:28:00.143Z,8.45
2019-03-08T13:30:00.409Z,8.52
2019-03-08T13:32:00.347Z,8.53
2019-03-08T13:34:00.425Z,8.77
2019-03-08T13:36:00.341Z,9.24
2019-03-08T13:38:00.452Z,9.53
2019-03-08T13:40:00.467Z,9.81
2019-03-08T13:42:00.474Z,10.15
2019-03-08T13:44:00.792Z,9.99
2019-03-08T13:46:00.499Z,9.71
2019-03-08T13:48:00.408Z,9.73
2019-03-08T13:50:00.532Z,9.83
2019-03-08T13:52:00.535Z,9.70
2019-03-08T13:54:00.470Z,9.39
2019-03-08T13:56:00.242Z,9.43
2019-03-08T13:58:00.567Z,9.43
2019-03-08T14:00:00.302Z,9.38
2019-03-08T14:02:00.385Z,9.25
2019-03-08T14:04:00.179Z,9.33
2019-03-08T14:06:00.279Z,9.44
2019-03-08T14:08:00.526Z,9.36
2019-03-08T14:10:00.489Z,9.29
2019-03-08T14:12:00.546Z,9.31
2019-03-08T14:14:00.560Z,9.27
2019-03-08T14:16:00.697Z,9.21
2019-03-08T14:18:00.461Z,9.15
2019-03-08T14:20:00.415Z,9.22
2019-03-08T14:22:00.337Z,9.03
2019-03-08T14:24:00.409Z,8.95
2019-03-08T14:26:00.622Z,8.81
2019-03-08T14:28:00.438Z,8.80
2019-03-08T14:30:00.581Z,8.71
2019-03-08T14:32:00.439Z,8.74
2019-03-08T14:34:00.476Z,8.68
2019-03-08T14:36:03.053Z,8.69
2019-03-08T14:38:00.600Z,8.60
2019-03-08T14:40:00.605Z,8.59
2019-03-08T14:42:03.862Z,8.49
2019-03-08T14:44:00.737Z,8.44
2019-03-08T14:46:00.771Z,8.34
2019-03-08T14:48:00.558Z,8.37
2019-03-08T14:50:00.970Z,8.40
2019-03-08T14:52:00.546Z,8.44
2019-03-08T14:54:00.479Z,8.44
2019-03-08T14:56:00.507Z,8.84
2019-03-08T14:58:00.737Z,9.14
2019-03-08T15:00:00.532Z,9.56
2019-03-08T15:02:00.747Z,10.04
2019-03-08T15:04:00.552Z,10.16
2019-03-08T15:06:00.563Z,10.12
2019-03-08T15:08:00.590Z,10.33
2019-03-08T15:10:02.421Z,10.48
2019-03-08T15:12:00.763Z,10.75
2019-03-08T15:14:00.362Z,10.46
2019-03-08T15:16:02.048Z,10.27
2019-03-08T15:18:00.532Z,10.10
2019-03-08T15:20:00.660Z,9.85
2019-03-08T15:22:00.542Z,9.67
2019-03-08T15:24:00.556Z,9.75
2019-03-08T15:26:00.560Z,9.78
2019-03-08T15:28:00.485Z,9.97
2019-03-08T15:30:00.494Z,9.83
2019-03-08T15:32:00.706Z,9.80
2019-03-08T15:34:00.326Z,9.74
2019-03-08T15:36:00.919Z,9.57
2019-03-08T15:38:00.430Z,9.36
2019-03-08T15:40:00.436Z,9.43
2019-03-08T15:42:02.485Z,9.27
2019-03-08T15:44:00.449Z,9.10
2019-03-08T15:46:00.680Z,9.09
2019-03-08T15:48:00.620Z,9.12
2019-03-08T15:50:00.525Z,9.15
2019-03-08T15:52:03.592Z,9.23
2019-03-08T15:54:00.632Z,9.08
2019-03-08T15:56:00.645Z,9.04
2019-03-08T15:58:00.658Z,8.87
2019-03-08T16:00:00.679Z,8.74
2019-03-08T16:02:02.173Z,8.76
2019-03-08T16:04:00.331Z,8.70
2019-03-08T16:06:02.921Z,8.62
2019-03-08T16:08:01.858Z,8.65
2019-03-08T16:10:00.728Z,8.68
2019-03-08T16:12:00.647Z,8.59
2019-03-08T16:14:08.561Z,8.51
2019-03-08T16:16:00.657Z,8.48
2019-03-08T16:18:00.463Z,8.60
2019-03-08T16:20:02.858Z,8.33
2019-03-08T16:22:00.702Z,8.27
2019-03-08T16:24:00.618Z,8.24
2019-03-08T16:26:00.711Z,8.09
2019-03-08T16:28:00.676Z,8.22
2019-03-08T16:30:02.996Z,8.12
2019-03-08T16:32:00.466Z,8.00
2019-03-08T16:34:00.555Z,8.00
2019-03-08T16:36:00.976Z,7.98
2019-03-08T16:38:00.581Z,7.96
2019-03-08T16:40:00.916Z,8.03
2019-03-08T16:42:00.915Z,7.97
2019-03-08T16:44:00.482Z,8.05
2019-03-08T16:46:00.971Z,7.92
2019-03-08T16:48:01.043Z,7.90
2019-03-08T16:50:00.552Z,8.00
2019-03-08T16:52:00.557Z,7.87
2019-03-08T16:54:00.669Z,7.86
2019-03-08T16:56:00.638Z,7.85
2019-03-08T16:58:00.901Z,7.77
2019-03-08T17:00:00.709Z,7.75
2019-03-08T17:02:00.735Z,7.54
2019-03-08T17:04:00.731Z,7.38
2019-03-08T17:06:00.943Z,7.44
2019-03-08T17:08:00.753Z,7.33
2019-03-08T17:10:00.762Z,7.16
2019-03-08T17:12:00.676Z,6.97
2019-03-08T17:14:00.691Z,6.88
2019-03-08T17:16:00.872Z,6.65
2019-03-08T17:18:00.709Z,6.64
2019-03-08T17:20:00.602Z,6.39
2019-03-08T17:22:03.535Z,6.28
2019-03-08T17:24:00.942Z,6.19
2019-03-08T17:26:00.846Z,6.10
2019-03-08T17:28:00.566Z,5.92
2019-03-08T17:30:00.537Z,5.79
2019-03-08T17:32:00.794Z,5.84
2019-03-08T17:34:00.363Z,5.74
2019-03-08T17:36:00.609Z,5.69
2019-03-08T17:38:00.686Z,5.67
2019-03-08T17:40:00.740Z,5.49
2019-03-08T17:42:00.641Z,5.43
2019-03-08T17:44:00.934Z,5.54
2019-03-08T17:46:00.668Z,5.46
2019-03-08T17:48:00.602Z,5.34
2019-03-08T17:50:00.577Z,5.39
2019-03-08T17:52:00.628Z,5.47
2019-03-08T17:54:01.010Z,5.32
2019-03-08T17:56:00.658Z,5.34
2019-03-08T17:58:01.079Z,5.26
2019-03-08T18:00:00.669Z,5.51
2019-03-08T18:02:00.867Z,5.75
2019-03-08T18:04:00.769Z,5.76
2019-03-08T18:06:00.866Z,5.97
2019-03-08T18:08:01.049Z,6.19
2019-03-08T18:10:00.917Z,6.53
2019-03-08T18:12:01.443Z,6.70
2019-03-08T18:14:00.830Z,6.70
2019-03-08T18:16:01.156Z,6.77
2019-03-08T18:18:01.173Z,6.82
2019-03-08T18:20:01.176Z,6.77
2019-03-08T18:22:01.020Z,6.79
2019-03-08T18:24:00.854Z,6.87
2019-03-08T18:26:01.036Z,6.93
2019-03-08T18:28:01.066Z,6.82
2019-03-08T18:30:01.134Z,6.78
2019-03-08T18:32:01.145Z,6.74
2019-03-08T18:34:01.151Z,6.61
2019-03-08T18:36:00.963Z,6.50
2019-03-08T18:38:01.179Z,6.40
2019-03-08T18:40:01.196Z,6.33
2019-03-08T18:42:01.206Z,6.20
2019-03-08T18:44:01.102Z,6.05
2019-03-08T18:46:00.995Z,6.09
2019-03-08T18:48:01.137Z,6.07
2019-03-08T18:50:01.154Z,6.03
2019-03-08T18:52:01.175Z,6.09
2019-03-08T18:54:01.006Z,6.18
2019-03-08T18:56:01.168Z,6.32
2019-03-08T18:58:01.187Z,6.40
2019-03-08T19:00:01.196Z,6.47
2019-03-08T19:02:01.225Z,6.53
2019-03-08T19:04:01.122Z,6.64
2019-03-08T19:06:01.242Z,6.71
2019-03-08T19:08:01.142Z,6.90
2019-03-08T19:10:01.470Z,6.87
2019-03-08T19:12:01.073Z,7.01
2019-03-08T19:14:01.077Z,7.09
2019-03-08T19:16:01.201Z,7.15
2019-03-08T19:18:01.200Z,7.24
2019-03-08T19:20:01.217Z,7.19
2019-03-08T19:22:01.226Z,7.18
2019-03-08T19:24:01.341Z,7.11
2019-03-08T19:26:00.919Z,7.12
2019-03-08T19:28:01.167Z,7.14
2019-03-08T19:30:00.932Z,7.18
2019-03-08T19:32:00.982Z,7.24
2019-03-08T19:34:01.301Z,7.13
2019-03-08T19:36:01.324Z,7.22
2019-03-08T19:38:01.217Z,7.26
2019-03-08T19:40:01.124Z,7.04
2019-03-08T19:42:01.246Z,7.20
2019-03-08T19:44:01.261Z,7.23
2019-03-08T19:46:01.270Z,7.35
2019-03-08T19:48:01.196Z,7.18
2019-03-08T19:50:01.183Z,7.10
2019-03-08T19:52:01.302Z,7.06
2019-03-08T19:54:02.436Z,7.01
2019-03-08T19:56:01.219Z,6.88
2019-03-08T19:58:01.335Z,6.77
2019-03-08T20:00:01.348Z,6.64
2019-03-08T20:02:01.155Z,6.71
2019-03-08T20:04:01.064Z,6.65
2019-03-08T20:06:01.208Z,6.68
2019-03-08T20:08:01.191Z,6.60
2019-03-08T20:10:01.070Z,6.56
2019-03-08T20:12:01.326Z,6.49
2019-03-08T20:14:01.330Z,6.34
2019-03-08T20:16:01.144Z,6.42
2019-03-08T20:18:01.048Z,6.40
2019-03-08T20:20:01.361Z,6.35
2019-03-08T20:22:01.276Z,6.39
2019-03-08T20:24:01.386Z,6.33
2019-03-08T20:26:01.194Z,6.35
2019-03-08T20:28:01.120Z,6.29
2019-03-08T20:30:01.080Z,6.41
2019-03-08T20:32:01.336Z,6.25
2019-03-08T20:34:01.237Z,6.34
2019-03-08T20:36:01.160Z,6.27
2019-03-08T20:38:01.270Z,6.22
2019-03-08T20:40:01.389Z,6.24
2019-03-08T20:42:01.026Z,6.30
2019-03-08T20:44:01.166Z,6.25
2019-03-08T20:46:01.007Z,6.19
2019-03-08T20:48:01.316Z,6.09
2019-03-08T20:50:01.334Z,6.16
2019-03-08T20:52:01.247Z,6.13
2019-03-08T20:54:01.259Z,6.08
2019-03-08T20:56:00.753Z,6.06
2019-03-08T20:58:01.690Z,6.12
2019-03-08T21:00:01.252Z,6.08
2019-03-08T21:02:01.397Z,6.10
2019-03-08T21:04:01.141Z,5.98
2019-03-08T21:06:01.114Z,6.06
2019-03-08T21:08:00.930Z,6.09
2019-03-08T21:10:00.933Z,5.90
2019-03-08T21:12:00.950Z,5.92
2019-03-08T21:14:00.887Z,5.93
2019-03-08T21:16:00.895Z,5.82
2019-03-08T21:18:01.296Z,5.81
2019-03-08T21:20:00.894Z,5.97
2019-03-08T21:22:01.001Z,5.85
2019-03-08T21:24:01.227Z,5.77
2019-03-08T21:26:01.559Z,5.84
2019-03-08T21:28:01.244Z,5.71
2019-03-08T21:30:00.745Z,5.81
2019-03-08T21:32:01.272Z,5.61
2019-03-08T21:34:01.688Z,5.67
2019-03-08T21:36:00.994Z,5.64
2019-03-08T21:38:00.998Z,5.66
2019-03-08T21:40:01.010Z,5.67
2019-03-08T21:42:00.928Z,5.66
2019-03-08T21:44:01.103Z,5.65
2019-03-08T21:46:00.937Z,5.61
2019-03-08T21:48:00.955Z,5.63
2019-03-08T21:50:00.843Z,5.54
2019-03-08T21:52:01.233Z,5.55
2019-03-08T21:54:01.301Z,5.49
2019-03-08T21:56:02.325Z,5.41
2019-03-08T21:58:01.416Z,5.35
2019-03-08T22:00:01.030Z,5.37
2019-03-08T22:02:00.920Z,5.42
2019-03-08T22:04:00.929Z,5.36
2019-03-08T22:06:01.057Z,5.37
2019-03-08T22:08:01.283Z,5.37
2019-03-08T22:10:00.872Z,5.24
2019-03-08T22:12:01.086Z,5.12
2019-03-08T22:14:00.899Z,5.22
2019-03-08T22:16:00.914Z,5.23
2019-03-08T22:18:01.027Z,5.18
2019-03-08T22:20:01.148Z,5.24
2019-03-08T22:22:00.944Z,5.17
2019-03-08T22:24:01.056Z,5.31
2019-03-08T22:26:01.260Z,5.19
2019-03-08T22:28:01.078Z,5.28
2019-03-08T22:30:01.003Z,5.39
2019-03-08T22:32:01.102Z,5.36
2019-03-08T22:34:02.015Z,5.32
2019-03-08T22:36:01.131Z,5.39
2019-03-08T22:38:00.847Z,5.39
2019-03-08T22:40:00.950Z,5.44
2019-03-08T22:42:00.953Z,5.43
2019-03-08T22:44:00.971Z,5.48
2019-03-08T22:46:00.915Z,5.43
2019-03-08T22:48:01.078Z,5.49
2019-03-08T22:50:01.018Z,5.46
2019-03-08T22:52:01.122Z,5.43
2019-03-08T22:54:00.669Z,5.52
2019-03-08T22:56:00.771Z,5.62
2019-03-08T22:58:00.743Z,5.54
2019-03-08T23:00:00.754Z,5.56
2019-03-08T23:02:01.073Z,5.55
2019-03-08T23:04:01.042Z,5.55
2019-03-08T23:06:01.007Z,5.52
2019-03-08T23:08:01.125Z,5.60
2019-03-08T23:10:01.019Z,5.54
2019-03-08T23:12:00.926Z,5.59
2019-03-08T23:14:01.050Z,5.51
2019-03-08T23:16:00.802Z,5.52
2019-03-08T23:18:01.080Z,5.51
2019-03-08T23:20:00.912Z,5.53
2019-03-08T23:22:00.932Z,5.58
2019-03-08T23:24:00.984Z,5.49
2019-03-08T23:26:00.936Z,5.64
2019-03-08T23:28:01.018Z,5.64
2019-03-08T23:30:01.141Z,5.63
2019-03-08T23:32:01.046Z,5.66
2019-03-08T23:34:02.815Z,5.66
2019-03-08T23:36:01.399Z,5.63
2019-03-08T23:38:00.977Z,5.66
2019-03-08T23:40:00.785Z,5.64
2019-03-08T23:42:01.002Z,5.53
2019-03-08T23:44:01.009Z,5.47
2019-03-08T23:46:00.937Z,5.46
2019-03-08T23:48:01.039Z,5.49
2019-03-08T23:50:00.948Z,5.45
2019-03-08T23:52:01.065Z,5.46
2019-03-08T23:54:01.177Z,5.42
2019-03-08T23:56:01.121Z,5.35
2019-03-08T23:58:00.992Z,5.46
